Date,TemperatureHighF,TemperatureAvgF,TemperatureLowF,DewpointHighF,DewpointAvgF,DewpointLowF,HumidityHigh,HumidityAvg,HumidityLow,PressureMaxIn,PressureMinIn,WindSpeedMaxMPH,WindSpeedAvgMPH,GustSpeedMaxMPH,PrecipitationSumIn
2013-1-1,66.0,54.9,49.0,49.0,46.6,45.0,87,75,53,30.27,30.19,4,1,9,0.01
2013-1-2,68.0,54.9,47.0,51.0,48.0,45.0,91,79,52,30.43,30.26,4,1,6,0.00
2013-1-3,69.0,55.7,49.0,53.0,48.3,44.0,94,77,54,30.53,30.43,3,1,6,0.00
2013-1-4,70.0,56.7,48.0,45.0,41.0,34.0,78,58,30,30.46,30.18,4,1,7,0.00
2013-1-5,67.0,55.1,50.0,42.0,37.3,31.0,68,53,26,30.18,29.90,3,1,6,0.00
2013-1-6,57.0,49.3,44.0,43.0,38.7,33.0,79,67,51,30.03,29.84,14,4,19,0.00
2013-1-7,60.0,46.2,42.0,34.0,28.7,18.0,65,52,25,30.11,29.98,10,2,23,0.00
2013-1-8,48.0,40.8,36.0,36.0,29.6,17.0,88,66,31,30.29,30.10,10,4,20,0.00
2013-1-9,55.0,43.4,37.0,34.0,26.6,21.0,73,52,30,30.19,30.12,4,1,6,0.00
2013-1-10,62.0,49.0,39.0,40.0,33.7,22.0,75,58,22,30.14,29.98,5,1,9,0.00
2013-1-11,71.0,58.4,48.0,56.0,50.8,39.0,97,77,51,29.99,29.77,9,2,15,0.08
2013-1-12,69.0,55.9,49.0,52.0,47.0,43.0,92,73,50,29.99,29.77,7,1,15,0.01
2013-1-13,68.0,54.5,46.0,48.0,43.8,41.0,86,69,44,30.18,29.99,4,1,6,0.00
2013-1-14,66.0,54.6,50.0,53.0,47.5,44.0,85,77,62,30.23,30.17,5,1,9,0.00
2013-1-15,67.0,57.4,50.0,56.0,51.4,47.0,90,81,63,30.21,29.98,8,2,12,0.04
2013-1-16,64.0,58.5,52.0,57.0,51.7,44.0,98,79,59,29.98,29.63,13,7,28,1.19
2013-1-17,62.0,58.0,52.0,54.0,48.3,43.0,81,70,58,29.74,29.60,14,6,20,0.01
2013-1-18,61.0,56.6,50.0,54.0,48.7,40.0,90,75,56,29.60,29.42,15,8,23,0.15
2013-1-19,64.0,53.9,49.0,45.0,41.6,39.0,77,64,43,29.82,29.49,8,3,15,0.01
2013-1-20,71.0,58.9,51.0,58.0,49.6,43.0,88,73,44,29.91,29.81,4,1,8,0.00
2013-1-21,69.0,61.0,56.0,58.0,54.0,50.0,93,79,51,29.88,29.62,8,3,15,0.00
2013-1-22,68.0,60.3,54.0,56.0,50.6,47.0,86,71,48,29.75,29.62,8,2,13,0.01
2013-1-23,67.0,59.4,54.0,50.0,45.8,41.0,76,62,41,29.91,29.75,7,2,11,0.01
2013-1-24,66.0,57.6,51.0,57.0,51.1,46.0,94,79,66,29.91,29.54,10,4,16,0.30
2013-1-25,69.0,54.9,50.0,53.0,48.1,44.0,94,78,48,29.61,29.44,14,4,24,0.62
2013-1-26,65.0,54.2,49.0,51.0,47.4,44.0,92,78,52,29.61,29.39,8,2,12,0.12
2013-1-27,56.0,50.7,48.0,47.0,43.4,42.0,92,76,63,29.90,29.61,5,2,11,0.12
2013-1-28,62.0,52.9,47.0,47.0,42.9,40.0,85,69,54,29.95,29.86,5,1,9,0.00
2013-1-29,55.0,50.2,47.0,44.0,42.1,40.0,85,74,60,30.06,29.95,8,2,12,0.00
2013-1-30,64.0,53.0,45.0,46.0,37.0,23.0,85,57,28,30.05,29.90,5,2,8,0.00
2013-1-31,60.0,54.1,48.0,48.0,38.7,28.0,74,57,36,29.95,29.79,10,2,17,0.00
2013-2-1,67.0,56.9,49.0,48.0,36.3,23.0,82,49,21,30.02,29.86,12,2,23,0.00
2013-2-2,67.0,57.7,50.0,57.0,50.5,45.0,89,78,58,29.86,29.71,8,2,12,0.00
2013-2-3,68.0,62.5,60.0,57.0,56.2,55.0,91,80,63,29.88,29.72,15,7,20,0.00
2013-2-4,69.0,62.1,58.0,59.0,56.1,53.0,93,82,57,29.94,29.87,6,2,9,0.00
2013-2-5,71.0,61.2,56.0,55.0,53.0,48.0,92,76,54,29.94,29.83,5,2,9,0.00
2013-2-17,49.0,48.7,48.0,45.0,44.3,43.0,86,85,84,29.96,29.96,3,1,5,0.00
2013-4-5,72.0,67.4,64.0,58.0,52.7,45.0,73,60,40,29.90,29.75,9,6,12,0.00
2013-4-6,71.0,65.2,59.0,55.0,52.9,51.0,77,65,52,29.76,29.65,5,1,10,0.00
2013-4-7,76.0,67.1,62.0,61.0,53.5,46.0,91,62,43,29.66,29.28,11,3,15,0.00
2013-4-8,66.0,61.6,59.0,55.0,51.1,48.0,84,69,57,29.84,29.36,8,2,14,0.00
2013-4-9,70.0,62.0,56.0,55.0,50.7,46.0,79,67,49,29.95,29.84,7,3,15,0.00
2013-4-10,70.0,63.4,57.0,57.0,52.8,49.0,81,68,54,29.96,29.87,8,3,12,0.00
2013-4-11,76.0,65.5,57.0,60.0,52.3,48.0,82,64,38,29.98,29.87,7,2,12,0.00
2013-4-12,72.0,65.0,58.0,59.0,53.0,47.0,83,66,48,30.03,29.94,9,2,12,0.00
2013-4-13,72.0,65.0,59.0,59.0,52.8,48.0,78,65,47,30.07,30.01,9,2,15,0.00
2013-4-14,83.0,69.3,62.0,56.0,51.4,46.0,74,55,28,30.06,29.98,11,3,17,0.00
2013-4-15,71.0,63.8,59.0,48.0,44.5,38.0,64,50,31,30.06,29.96,14,5,24,0.00
2013-4-16,69.0,61.1,54.0,49.0,44.4,38.0,81,56,33,30.04,29.96,13,5,22,0.00
2013-4-17,74.0,63.4,57.0,43.0,33.6,19.0,58,36,13,30.06,30.00,12,4,22,0.00
2013-4-18,70.0,62.0,57.0,42.0,31.4,21.0,56,34,16,30.05,29.97,15,5,26,0.00
2013-4-19,70.0,60.6,55.0,48.0,38.5,32.0,68,45,29,29.99,29.88,7,3,20,0.00
2013-4-20,69.0,63.1,55.0,46.0,42.9,38.0,63,48,40,29.96,29.89,8,3,19,0.00
2013-4-21,69.0,69.0,69.0,44.0,44.0,44.0,40,40,40,29.95,29.95,4,4,9,0.00
2013-4-22,69.0,69.0,69.0,44.0,44.0,44.0,40,40,40,29.95,29.95,4,4,9,0.00